Time;durP1;ratioP1;P1;durP2;ratioP2;P2;SDS_P1;SDS_P2;PMS_P1;PMS_P2;Temp;Humidity;BMP_temperature;BMP_pressure;BME280_temperature;BME280_humidity;BME280_pressure;Samples;Min_cycle;Max_cycle;Signal;HPM_P1;HPM_P2
2022/07/07 00:02:01;;;;;;;2.83;2.53;;;;;;;;;;5022634;28;20203;-66
2022/07/07 00:04:28;;;;;;;3.63;2.97;;;;;;;;;;5024113;28;20582;-66
2022/07/07 00:06:56;;;;;;;4.40;2.90;;;;;;;;;;5022071;28;20606;-66
2022/07/07 00:09:23;;;;;;;4.60;3.10;;;;;;;;;;5023710;28;20202;-67
2022/07/07 00:11:55;;;;;;;3.73;2.63;;;;;;;;;;5021320;28;20207;-68
2022/07/07 00:14:22;;;;;;;4.90;3.00;;;;;;;;;;5022751;28;20222;-67
2022/07/07 00:16:50;;;;;;;2.83;2.53;;;;;;;;;;5021371;28;20608;-68
2022/07/07 00:19:17;;;;;;;2.73;2.53;;;;;;;;;;5010619;28;20606;-67
2022/07/07 00:21:45;;;;;;;2.77;2.57;;;;;;;;;;5019569;28;20210;-67
2022/07/07 00:24:12;;;;;;;2.70;2.50;;;;;;;;;;5014312;28;20203;-67
2022/07/07 00:26:39;;;;;;;3.97;2.63;;;;;;;;;;5026884;28;20226;-67
2022/07/07 00:29:07;;;;;;;5.87;3.10;;;;;;;;;;5020836;28;20560;-66
2022/07/07 00:31:38;;;;;;;3.60;2.87;;;;;;;;;;5016910;28;20207;-67
2022/07/07 00:34:05;;;;;;;3.00;2.70;;;;;;;;;;5011354;28;20238;-67
2022/07/07 00:36:34;;;;;;;4.37;2.67;;;;;;;;;;5025266;28;20302;-67
2022/07/07 00:39:01;;;;;;;4.17;2.73;;;;;;;;;;5018101;28;20212;-67
2022/07/07 00:41:28;;;;;;;3.03;2.60;;;;;;;;;;5012819;28;20207;-67
2022/07/07 00:43:56;;;;;;;5.00;2.83;;;;;;;;;;5021002;28;20246;-67
2022/07/07 00:46:24;;;;;;;4.40;2.50;;;;;;;;;;5023606;28;20231;-66
2022/07/07 00:48:51;;;;;;;5.03;2.90;;;;;;;;;;5018182;28;20793;-65
2022/07/07 00:51:18;;;;;;;3.50;2.50;;;;;;;;;;5026219;28;20202;-66
2022/07/07 00:53:46;;;;;;;2.80;2.60;;;;;;;;;;5024165;28;20684;-67
2022/07/07 00:56:13;;;;;;;2.93;2.60;;;;;;;;;;5021610;28;20307;-67
2022/07/07 00:58:40;;;;;;;2.90;2.60;;;;;;;;;;5021856;28;20210;-66
2022/07/07 01:01:08;;;;;;;5.50;2.80;;;;;;;;;;5024921;28;20268;-67
2022/07/07 01:03:35;;;;;;;2.90;2.63;;;;;;;;;;5020112;28;20241;-67
2022/07/07 01:06:03;;;;;;;2.93;2.70;;;;;;;;;;5017915;28;20241;-67
2022/07/07 01:08:31;;;;;;;3.70;2.50;;;;;;;;;;5022872;28;20233;-65
2022/07/07 01:10:58;;;;;;;3.87;2.50;;;;;;;;;;5019166;28;20206;-67
2022/07/07 01:13:26;;;;;;;4.57;2.80;;;;;;;;;;5025289;28;20211;-66
2022/07/07 01:15:54;;;;;;;4.30;2.40;;;;;;;;;;5016030;28;21199;-67
2022/07/07 01:18:22;;;;;;;4.50;2.70;;;;;;;;;;5022097;28;20208;-67
2022/07/07 01:20:50;;;;;;;4.37;2.30;;;;;;;;;;5014431;28;21472;-65
2022/07/07 01:23:17;;;;;;;3.07;2.50;;;;;;;;;;5015496;28;20207;-67
2022/07/07 01:25:45;;;;;;;3.80;2.63;;;;;;;;;;5017160;28;20705;-66
2022/07/07 01:28:12;;;;;;;3.17;2.90;;;;;;;;;;5019535;28;20297;-66
2022/07/07 01:30:39;;;;;;;5.20;2.50;;;;;;;;;;5022926;28;20231;-67
2022/07/07 01:33:07;;;;;;;3.03;2.77;;;;;;;;;;5020617;28;20210;-66
2022/07/07 01:35:34;;;;;;;3.47;3.07;;;;;;;;;;5020671;28;20747;-66
2022/07/07 01:38:02;;;;;;;5.23;2.40;;;;;;;;;;5019872;28;20208;-67
2022/07/07 01:40:29;;;;;;;3.47;2.87;;;;;;;;;;5015357;28;20211;-65
2022/07/07 01:42:56;;;;;;;4.13;2.90;;;;;;;;;;5011805;28;20666;-66
2022/07/07 01:45:24;;;;;;;2.90;2.70;;;;;;;;;;5015002;28;20577;-67
2022/07/07 01:47:51;;;;;;;2.70;2.50;;;;;;;;;;5018978;28;20235;-67
2022/07/07 01:50:20;;;;;;;4.90;2.90;;;;;;;;;;5020358;28;20270;-65
2022/07/07 01:52:47;;;;;;;4.77;2.90;;;;;;;;;;5021658;28;20277;-66
2022/07/07 01:55:15;;;;;;;3.20;2.90;;;;;;;;;;5016051;28;20310;-67
2022/07/07 01:57:42;;;;;;;5.97;2.67;;;;;;;;;;5020174;28;20207;-66
2022/07/07 02:00:11;;;;;;;3.50;2.60;;;;;;;;;;5015966;28;20323;-66
2022/07/07 02:02:39;;;;;;;5.47;2.40;;;;;;;;;;5014231;28;20202;-66
2022/07/07 02:05:06;;;;;;;2.87;2.57;;;;;;;;;;5018707;28;20226;-67
2022/07/07 02:07:37;;;;;;;3.20;2.90;;;;;;;;;;5040304;28;20217;-65
2022/07/07 02:10:05;;;;;;;3.10;2.57;;;;;;;;;;5037295;28;20230;-66
2022/07/07 02:12:32;;;;;;;5.67;2.63;;;;;;;;;;5023162;28;20580;-66
2022/07/07 02:15:00;;;;;;;6.13;2.50;;;;;;;;;;5015901;28;20230;-67
2022/07/07 02:17:27;;;;;;;2.50;2.30;;;;;;;;;;5016278;28;20207;-66
2022/07/07 02:19:55;;;;;;;3.73;2.57;;;;;;;;;;5036159;28;20567;-67
2022/07/07 02:22:22;;;;;;;5.00;3.10;;;;;;;;;;5016726;28;20257;-65
2022/07/07 02:24:49;;;;;;;3.10;2.50;;;;;;;;;;5016051;28;20222;-65
2022/07/07 02:27:17;;;;;;;4.43;2.70;;;;;;;;;;5016904;28;20308;-66
2022/07/07 02:29:44;;;;;;;4.03;2.50;;;;;;;;;;5020189;28;20222;-65
2022/07/07 02:32:11;;;;;;;4.00;2.80;;;;;;;;;;5019661;28;20584;-65
2022/07/07 02:34:39;;;;;;;2.87;2.53;;;;;;;;;;5020151;28;22023;-66
2022/07/07 02:37:06;;;;;;;3.17;2.90;;;;;;;;;;5019544;28;20688;-67
2022/07/07 02:39:33;;;;;;;2.93;2.60;;;;;;;;;;5017461;28;20198;-67
2022/07/07 02:42:00;;;;;;;2.70;2.50;;;;;;;;;;5021055;28;20665;-66
2022/07/07 02:44:28;;;;;;;3.10;2.40;;;;;;;;;;5021444;28;20199;-66
2022/07/07 02:46:56;;;;;;;2.70;2.50;;;;;;;;;;5025057;28;20222;-67
2022/07/07 02:49:23;;;;;;;2.60;2.30;;;;;;;;;;5012412;28;20210;-67
2022/07/07 02:51:50;;;;;;;3.27;2.97;;;;;;;;;;5022788;28;20653;-65
2022/07/07 02:54:18;;;;;;;4.50;3.10;;;;;;;;;;5022835;28;20199;-66
2022/07/07 02:56:45;;;;;;;3.27;2.97;;;;;;;;;;5025530;28;20238;-67
2022/07/07 02:59:13;;;;;;;9.83;3.10;;;;;;;;;;5017737;28;20207;-67
2022/07/07 03:01:40;;;;;;;2.80;2.60;;;;;;;;;;5018392;28;20202;-66
2022/07/07 03:04:08;;;;;;;2.80;2.40;;;;;;;;;;5018234;28;20210;-67
2022/07/07 03:06:35;;;;;;;2.93;2.60;;;;;;;;;;5023997;28;20236;-67
2022/07/07 03:09:02;;;;;;;2.50;2.30;;;;;;;;;;5024806;28;20211;-67
2022/07/07 03:11:30;;;;;;;2.43;2.30;;;;;;;;;;5021058;28;20668;-65
2022/07/07 03:13:57;;;;;;;3.97;2.90;;;;;;;;;;5021564;28;20202;-67
2022/07/07 03:16:25;;;;;;;3.03;2.50;;;;;;;;;;5026476;28;20318;-67
2022/07/07 03:18:52;;;;;;;3.03;2.73;;;;;;;;;;5024296;28;20302;-66
2022/07/07 03:21:20;;;;;;;4.83;2.47;;;;;;;;;;5024627;28;20662;-68
2022/07/07 03:23:47;;;;;;;2.80;2.60;;;;;;;;;;5025161;28;20195;-67
2022/07/07 03:26:14;;;;;;;3.80;2.60;;;;;;;;;;5017980;28;20311;-67
2022/07/07 03:28:42;;;;;;;3.03;2.50;;;;;;;;;;5017679;28;20297;-66
2022/07/07 03:31:09;;;;;;;3.53;2.70;;;;;;;;;;5015712;28;20293;-66
2022/07/07 03:33:37;;;;;;;2.90;2.70;;;;;;;;;;5024805;28;20237;-67
2022/07/07 03:36:05;;;;;;;3.67;2.67;;;;;;;;;;5016930;28;20237;-67
2022/07/07 03:38:32;;;;;;;3.00;2.63;;;;;;;;;;5017371;28;20299;-67
2022/07/07 03:41:00;;;;;;;3.43;3.13;;;;;;;;;;5012903;28;20211;-66
2022/07/07 03:43:29;;;;;;;3.53;3.10;;;;;;;;;;5003278;28;20284;-66
2022/07/07 03:45:57;;;;;;;3.60;2.70;;;;;;;;;;5012143;28;20264;-68
2022/07/07 03:48:24;;;;;;;2.70;2.50;;;;;;;;;;5015992;28;20226;-67
2022/07/07 03:50:52;;;;;;;2.63;2.37;;;;;;;;;;5020193;28;20299;-66
2022/07/07 03:53:19;;;;;;;2.50;2.20;;;;;;;;;;5014100;28;20225;-65
2022/07/07 03:55:46;;;;;;;3.67;2.77;;;;;;;;;;5016213;28;20223;-67
2022/07/07 03:58:15;;;;;;;2.70;2.50;;;;;;;;;;5020180;28;20286;-65
2022/07/07 04:00:42;;;;;;;3.50;2.53;;;;;;;;;;5014201;28;20210;-65
2022/07/07 04:03:10;;;;;;;4.47;2.30;;;;;;;;;;5009770;28;20202;-65
2022/07/07 04:05:37;;;;;;;2.23;1.90;;;;;;;;;;5029804;28;20258;-67
2022/07/07 04:08:05;;;;;;;3.10;2.40;;;;;;;;;;5017821;28;20226;-66
2022/07/07 04:10:32;;;;;;;3.83;2.27;;;;;;;;;;5016063;28;20217;-64
2022/07/07 04:13:00;;;;;;;2.73;2.33;;;;;;;;;;5022285;28;20571;-67
2022/07/07 04:15:28;;;;;;;3.90;2.03;;;;;;;;;;5023202;28;20317;-67
2022/07/07 04:17:55;;;;;;;2.40;2.20;;;;;;;;;;5024475;28;20200;-66
2022/07/07 04:20:24;;;;;;;2.93;2.10;;;;;;;;;;5015146;28;20739;-66
2022/07/07 04:22:51;;;;;;;2.50;2.30;;;;;;;;;;5018116;28;20573;-65
2022/07/07 04:25:18;;;;;;;2.20;1.90;;;;;;;;;;5019467;28;20238;-66
2022/07/07 04:27:46;;;;;;;6.23;2.03;;;;;;;;;;5023057;28;20211;-65
2022/07/07 04:30:14;;;;;;;2.93;2.03;;;;;;;;;;5023531;28;20257;-66
2022/07/07 04:32:42;;;;;;;6.13;2.10;;;;;;;;;;5019031;28;20241;-66
2022/07/07 04:35:09;;;;;;;3.60;2.40;;;;;;;;;;5016265;28;20235;-66
2022/07/07 04:37:37;;;;;;;4.03;2.13;;;;;;;;;;5028341;28;20202;-65
2022/07/07 04:40:05;;;;;;;3.80;2.40;;;;;;;;;;5012934;28;20207;-65
2022/07/07 04:42:32;;;;;;;3.37;2.40;;;;;;;;;;5017934;28;20203;-66
2022/07/07 04:44:59;;;;;;;2.70;2.10;;;;;;;;;;5023888;28;20225;-66
2022/07/07 04:47:27;;;;;;;4.43;2.10;;;;;;;;;;5016104;28;20269;-66
2022/07/07 04:49:54;;;;;;;2.53;2.00;;;;;;;;;;5021287;28;20203;-65
2022/07/07 04:52:22;;;;;;;2.87;2.20;;;;;;;;;;5023523;28;20494;-64
2022/07/07 04:54:49;;;;;;;3.77;2.40;;;;;;;;;;5023673;28;20245;-65
2022/07/07 04:57:23;;;;;;;3.03;2.20;;;;;;;;;;5025708;28;20798;-66
2022/07/07 04:59:51;;;;;;;2.50;2.30;;;;;;;;;;5024773;28;20199;-65
2022/07/07 05:02:18;;;;;;;4.90;2.40;;;;;;;;;;5022421;28;20207;-65
2022/07/07 05:04:45;;;;;;;3.57;2.27;;;;;;;;;;5020573;28;20288;-66
2022/07/07 05:07:13;;;;;;;2.37;2.10;;;;;;;;;;5018492;28;20264;-67
2022/07/07 05:09:40;;;;;;;2.53;1.87;;;;;;;;;;5023454;28;20225;-67
2022/07/07 05:12:08;;;;;;;2.30;1.90;;;;;;;;;;5026055;28;20203;-66
2022/07/07 05:14:35;;;;;;;2.60;1.80;;;;;;;;;;5017515;28;20214;-66
2022/07/07 05:17:03;;;;;;;1.63;1.53;;;;;;;;;;5016783;28;20724;-66
2022/07/07 05:19:31;;;;;;;3.20;1.60;;;;;;;;;;5020121;28;20756;-66
2022/07/07 05:21:58;;;;;;;1.90;1.80;;;;;;;;;;5015342;28;20230;-65
2022/07/07 05:24:25;;;;;;;3.53;1.80;;;;;;;;;;5023323;28;20261;-66
2022/07/07 05:26:53;;;;;;;1.63;1.53;;;;;;;;;;5006950;28;20607;-66
2022/07/07 05:29:20;;;;;;;1.77;1.60;;;;;;;;;;5017307;28;20258;-66
2022/07/07 05:31:47;;;;;;;2.13;1.50;;;;;;;;;;5020088;28;20199;-67
2022/07/07 05:34:15;;;;;;;1.83;1.73;;;;;;;;;;5022885;28;20249;-67
2022/07/07 05:36:42;;;;;;;2.90;2.17;;;;;;;;;;5015858;28;20617;-66
2022/07/07 05:39:13;;;;;;;2.30;1.70;;;;;;;;;;5010589;28;20253;-66
2022/07/07 05:41:40;;;;;;;2.67;1.67;;;;;;;;;;5015694;28;20214;-66
2022/07/07 05:44:08;;;;;;;2.90;1.70;;;;;;;;;;5010735;28;20195;-66
2022/07/07 05:46:35;;;;;;;3.10;1.50;;;;;;;;;;5019377;28;20600;-66
2022/07/07 05:49:03;;;;;;;1.20;1.10;;;;;;;;;;5017598;28;20588;-66
2022/07/07 05:51:31;;;;;;;1.52;1.10;;;;;;;;;;5027650;28;20222;-67
2022/07/07 05:53:58;;;;;;;2.63;1.05;;;;;;;;;;5013077;28;20211;-66
2022/07/07 05:56:25;;;;;;;2.15;1.13;;;;;;;;;;5019439;28;20238;-67
2022/07/07 05:58:53;;;;;;;1.13;1.00;;;;;;;;;;5019107;28;20220;-67
2022/07/07 06:01:20;;;;;;;1.80;1.00;;;;;;;;;;5021042;28;20629;-67
2022/07/07 06:03:48;;;;;;;1.95;0.90;;;;;;;;;;5020369;28;20202;-66
2022/07/07 06:06:15;;;;;;;2.15;1.30;;;;;;;;;;5018419;28;20240;-67
2022/07/07 06:08:42;;;;;;;1.48;1.00;;;;;;;;;;5018760;28;20253;-66
2022/07/07 06:11:10;;;;;;;1.52;1.00;;;;;;;;;;5025299;28;20206;-67
2022/07/07 06:13:38;;;;;;;1.50;1.10;;;;;;;;;;5019382;28;20234;-67
2022/07/07 06:16:05;;;;;;;2.70;1.20;;;;;;;;;;5018687;28;20786;-66
2022/07/07 06:18:33;;;;;;;2.75;1.33;;;;;;;;;;5023741;28;20258;-66
2022/07/07 06:21:00;;;;;;;2.60;1.00;;;;;;;;;;5018855;28;20203;-67
2022/07/07 06:23:28;;;;;;;1.40;1.30;;;;;;;;;;5021061;28;20268;-65
2022/07/07 06:25:56;;;;;;;4.40;1.20;;;;;;;;;;5018523;28;20643;-67
2022/07/07 06:28:23;;;;;;;1.73;1.20;;;;;;;;;;5020242;28;20238;-66
2022/07/07 06:30:53;;;;;;;2.30;1.50;;;;;;;;;;5021942;28;20298;-66
2022/07/07 06:33:20;;;;;;;4.28;1.40;;;;;;;;;;5016737;28;20218;-66
2022/07/07 06:35:48;;;;;;;5.30;1.70;;;;;;;;;;5027372;28;20364;-67
2022/07/07 06:38:15;;;;;;;1.52;1.38;;;;;;;;;;5022558;28;20245;-66
2022/07/07 06:40:42;;;;;;;2.47;1.80;;;;;;;;;;5019017;28;20256;-66
2022/07/07 06:43:16;;;;;;;1.95;1.60;;;;;;;;;;5011141;28;20210;-66
2022/07/07 06:45:46;;;;;;;2.08;1.30;;;;;;;;;;5016513;28;20252;-66
2022/07/07 06:48:13;;;;;;;1.65;1.30;;;;;;;;;;5012045;28;20227;-66
2022/07/07 06:50:41;;;;;;;1.65;1.50;;;;;;;;;;5010743;28;20211;-66
2022/07/07 06:53:08;;;;;;;2.13;1.52;;;;;;;;;;5016014;28;20206;-65
2022/07/07 06:55:36;;;;;;;1.60;1.50;;;;;;;;;;5013866;28;20357;-66
2022/07/07 06:58:03;;;;;;;2.33;1.70;;;;;;;;;;5015762;28;20207;-66
2022/07/07 07:00:31;;;;;;;1.83;1.50;;;;;;;;;;5009971;28;20194;-66
2022/07/07 07:02:58;;;;;;;2.22;1.50;;;;;;;;;;5002812;28;20207;-66
2022/07/07 07:05:26;;;;;;;2.67;1.55;;;;;;;;;;5001450;28;20388;-66
2022/07/07 07:07:54;;;;;;;3.38;1.80;;;;;;;;;;5027863;28;20213;-67
2022/07/07 07:10:21;;;;;;;1.83;1.42;;;;;;;;;;5015057;28;20222;-66
2022/07/07 07:12:49;;;;;;;3.58;1.90;;;;;;;;;;5005889;28;20699;-68
2022/07/07 07:15:16;;;;;;;2.67;1.67;;;;;;;;;;5019627;28;20223;-66
2022/07/07 07:17:44;;;;;;;2.50;1.60;;;;;;;;;;5019188;28;20234;-67
2022/07/07 07:20:17;;;;;;;2.63;2.08;;;;;;;;;;5009628;28;20293;-68
2022/07/07 07:22:45;;;;;;;2.65;2.03;;;;;;;;;;5013189;28;20215;-66
2022/07/07 07:25:12;;;;;;;3.63;2.53;;;;;;;;;;5016654;28;20222;-67
2022/07/07 07:27:39;;;;;;;5.50;2.88;;;;;;;;;;5022365;28;20267;-68
2022/07/07 07:30:07;;;;;;;5.35;2.20;;;;;;;;;;5015945;28;20680;-68
2022/07/07 07:32:34;;;;;;;3.63;1.88;;;;;;;;;;5014981;28;20555;-69
2022/07/07 07:35:02;;;;;;;2.72;1.80;;;;;;;;;;5004275;28;20279;-68
2022/07/07 07:37:29;;;;;;;3.33;1.90;;;;;;;;;;5013139;28;20222;-67
2022/07/07 07:39:56;;;;;;;4.78;1.98;;;;;;;;;;5013243;28;20209;-69
2022/07/07 07:42:24;;;;;;;1.60;1.50;;;;;;;;;;5008409;28;20210;-66
2022/07/07 07:45:09;;;;;;;2.22;1.60;;;;;;;;;;5010862;28;20276;-68
2022/07/07 07:47:38;;;;;;;4.32;2.08;;;;;;;;;;5005799;28;20219;-65
2022/07/07 07:50:06;;;;;;;1.83;1.73;;;;;;;;;;5011150;28;20221;-66
2022/07/07 07:52:34;;;;;;;4.65;2.20;;;;;;;;;;5017813;28;20705;-67
2022/07/07 07:55:01;;;;;;;2.60;2.40;;;;;;;;;;5029785;28;20608;-67
2022/07/07 07:57:28;;;;;;;5.50;2.60;;;;;;;;;;5022739;28;20226;-68
2022/07/07 07:59:56;;;;;;;3.95;2.53;;;;;;;;;;5020642;28;20253;-66
2022/07/07 08:02:23;;;;;;;4.88;3.00;;;;;;;;;;5022373;28;20207;-68
2022/07/07 08:04:50;;;;;;;4.18;2.60;;;;;;;;;;5007139;28;20235;-67
2022/07/07 08:07:18;;;;;;;2.75;2.45;;;;;;;;;;5015905;28;20586;-66
2022/07/07 08:09:45;;;;;;;4.97;2.45;;;;;;;;;;5013823;28;20211;-68
2022/07/07 08:12:13;;;;;;;3.88;2.25;;;;;;;;;;5016901;28;20207;-67
2022/07/07 08:14:47;;;;;;;2.42;2.20;;;;;;;;;;5022463;28;20234;-67
2022/07/07 08:17:15;;;;;;;3.90;2.58;;;;;;;;;;5014830;28;20229;-66
2022/07/07 08:19:42;;;;;;;2.80;2.42;;;;;;;;;;5013287;28;20281;-68
2022/07/07 08:22:10;;;;;;;4.70;2.63;;;;;;;;;;5020964;28;20720;-68
2022/07/07 08:24:38;;;;;;;6.22;2.92;;;;;;;;;;5016524;28;20280;-67
2022/07/07 08:27:05;;;;;;;4.10;2.70;;;;;;;;;;5021864;28;20215;-67
2022/07/07 08:29:37;;;;;;;3.15;2.53;;;;;;;;;;5019310;28;20681;-67
2022/07/07 08:32:08;;;;;;;5.32;2.60;;;;;;;;;;5015541;28;20256;-67
2022/07/07 08:34:36;;;;;;;4.57;2.42;;;;;;;;;;5025409;28;20664;-67
2022/07/07 08:37:08;;;;;;;4.30;2.47;;;;;;;;;;5022316;28;20277;-67
2022/07/07 08:39:36;;;;;;;7.65;4.40;;;;;;;;;;5022487;28;20203;-67
2022/07/07 08:42:04;;;;;;;3.20;2.90;;;;;;;;;;5010938;28;20252;-67
2022/07/07 08:44:31;;;;;;;2.22;2.10;;;;;;;;;;5008342;28;20556;-66
2022/07/07 08:46:59;;;;;;;3.00;2.20;;;;;;;;;;5014468;28;20223;-67
2022/07/07 08:49:30;;;;;;;5.78;2.63;;;;;;;;;;5022581;28;20293;-67
2022/07/07 08:51:57;;;;;;;3.60;2.50;;;;;;;;;;5010971;28;20207;-68
2022/07/07 08:54:26;;;;;;;4.45;2.05;;;;;;;;;;5011550;28;20693;-67
2022/07/07 08:56:54;;;;;;;4.47;1.80;;;;;;;;;;5021044;28;20231;-67
2022/07/07 08:59:26;;;;;;;2.15;1.95;;;;;;;;;;5020221;28;20685;-68
2022/07/07 09:02:02;;;;;;;2.00;1.80;;;;;;;;;;5009797;28;20210;-68
2022/07/07 09:04:29;;;;;;;1.85;1.75;;;;;;;;;;5018963;28;20208;-68
2022/07/07 09:06:59;;;;;;;2.03;1.90;;;;;;;;;;5020933;28;20211;-68
2022/07/07 09:09:36;;;;;;;3.10;2.28;;;;;;;;;;5024092;28;20261;-67
2022/07/07 09:12:04;;;;;;;2.47;1.90;;;;;;;;;;5030447;28;20210;-68
2022/07/07 09:14:38;;;;;;;3.55;2.38;;;;;;;;;;5021259;28;20203;-68
2022/07/07 09:17:25;;;;;;;2.40;2.17;;;;;;;;;;5021242;28;20230;-68
2022/07/07 09:20:00;;;;;;;5.35;2.13;;;;;;;;;;5024161;28;20214;-67
2022/07/07 09:22:43;;;;;;;2.90;2.28;;;;;;;;;;5024390;28;20616;-68
2022/07/07 09:25:11;;;;;;;4.68;2.10;;;;;;;;;;5021295;28;20223;-68
2022/07/07 09:28:05;;;;;;;3.03;2.08;;;;;;;;;;5024084;28;20252;-69
2022/07/07 09:30:40;;;;;;;2.30;2.10;;;;;;;;;;5010161;28;20257;-67
2022/07/07 09:33:09;;;;;;;4.25;2.40;;;;;;;;;;5015033;28;20643;-68
2022/07/07 09:38:23;;;;;;;4.78;2.33;;;;;;;;;;5025365;28;20312;-68
2022/07/07 09:40:59;;;;;;;4.57;2.13;;;;;;;;;;5013863;28;20327;-68
2022/07/07 09:43:28;;;;;;;3.30;2.03;;;;;;;;;;5022740;28;20210;-68
2022/07/07 09:46:08;;;;;;;5.15;2.10;;;;;;;;;;5025275;28;20818;-67
2022/07/07 09:48:36;;;;;;;3.20;1.95;;;;;;;;;;5014861;28;20214;-68
2022/07/07 09:51:14;;;;;;;6.00;2.20;;;;;;;;;;5017891;28;20627;-66
2022/07/07 09:54:02;;;;;;;4.18;2.15;;;;;;;;;;5019036;28;20272;-67
2022/07/07 09:56:37;;;;;;;2.85;2.00;;;;;;;;;;5019262;28;20712;-67
2022/07/07 09:59:06;;;;;;;4.63;2.00;;;;;;;;;;5021199;28;20239;-67
2022/07/07 10:01:35;;;;;;;2.00;1.67;;;;;;;;;;5017036;28;20207;-68
2022/07/07 10:04:04;;;;;;;6.43;2.47;;;;;;;;;;5013834;28;20207;-68
2022/07/07 10:06:32;;;;;;;4.85;2.72;;;;;;;;;;5017751;28;20218;-67
2022/07/07 10:09:07;;;;;;;5.78;2.70;;;;;;;;;;5019561;28;20195;-67
2022/07/07 10:11:34;;;;;;;3.70;1.92;;;;;;;;;;5013665;28;20210;-67
2022/07/07 10:14:22;;;;;;;3.13;2.40;;;;;;;;;;5018079;28;20209;-68
2022/07/07 10:16:51;;;;;;;3.22;2.03;;;;;;;;;;5015739;28;20230;-67
2022/07/07 10:19:23;;;;;;;2.53;1.63;;;;;;;;;;5017435;28;20216;-67
2022/07/07 10:21:52;;;;;;;4.18;1.85;;;;;;;;;;5032019;28;20203;-67
2022/07/07 10:24:21;;;;;;;5.90;1.90;;;;;;;;;;5017562;28;20217;-66
2022/07/07 10:26:53;;;;;;;2.85;2.00;;;;;;;;;;5012453;28;20731;-66
2022/07/07 10:29:38;;;;;;;2.63;1.90;;;;;;;;;;5021956;28;20210;-66
2022/07/07 10:32:07;;;;;;;2.88;1.98;;;;;;;;;;5009155;28;20218;-65
2022/07/07 10:34:36;;;;;;;2.45;1.95;;;;;;;;;;4996842;28;20246;-67
2022/07/07 10:37:07;;;;;;;2.70;2.13;;;;;;;;;;5003295;28;20759;-68
2022/07/07 10:39:36;;;;;;;2.55;1.98;;;;;;;;;;5018940;28;20217;-68
2022/07/07 10:42:12;;;;;;;5.47;2.00;;;;;;;;;;5016017;28;20257;-68
2022/07/07 10:44:40;;;;;;;3.05;2.10;;;;;;;;;;5000017;28;20207;-67
2022/07/07 10:47:14;;;;;;;2.17;1.80;;;;;;;;;;5009080;28;20229;-67
2022/07/07 10:49:42;;;;;;;3.78;1.90;;;;;;;;;;5012847;28;20202;-66
2022/07/07 10:52:17;;;;;;;2.00;1.83;;;;;;;;;;5005641;28;20215;-66
2022/07/07 10:54:47;;;;;;;2.35;1.77;;;;;;;;;;5006090;28;21997;-69
2022/07/07 10:57:24;;;;;;;4.65;1.90;;;;;;;;;;5013002;28;20281;-68
2022/07/07 11:00:04;;;;;;;2.70;1.58;;;;;;;;;;5008001;28;20245;-66
2022/07/07 11:02:34;;;;;;;1.80;1.70;;;;;;;;;;5005600;28;20767;-69
2022/07/07 11:05:03;;;;;;;3.90;1.83;;;;;;;;;;5011892;28;20542;-68
2022/07/07 11:07:31;;;;;;;3.65;1.73;;;;;;;;;;5018946;28;20207;-68
2022/07/07 11:10:03;;;;;;;2.00;1.80;;;;;;;;;;5012643;28;20227;-68
2022/07/07 11:12:41;;;;;;;3.58;1.92;;;;;;;;;;5010338;28;20203;-67
2022/07/07 11:15:32;;;;;;;2.40;1.80;;;;;;;;;;5016238;28;20688;-67
2022/07/07 11:18:11;;;;;;;3.28;1.77;;;;;;;;;;5008011;28;20229;-67
2022/07/07 11:20:50;;;;;;;4.30;2.08;;;;;;;;;;5025014;28;20207;-68
2022/07/07 11:23:18;;;;;;;1.80;1.70;;;;;;;;;;5012674;28;20656;-67
2022/07/07 11:25:47;;;;;;;3.45;2.15;;;;;;;;;;5016785;28;20227;-68
2022/07/07 11:28:14;;;;;;;2.20;1.70;;;;;;;;;;5018369;28;20306;-68
2022/07/07 11:30:42;;;;;;;3.85;2.00;;;;;;;;;;5014128;28;20222;-69
2022/07/07 11:33:10;;;;;;;2.47;1.80;;;;;;;;;;5010532;28;20231;-66
2022/07/07 11:35:40;;;;;;;5.32;1.67;;;;;;;;;;5008104;28;20231;-68
2022/07/07 11:38:09;;;;;;;1.90;1.52;;;;;;;;;;5009199;28;20229;-66
2022/07/07 11:40:45;;;;;;;1.90;1.73;;;;;;;;;;5016425;28;20199;-69
2022/07/07 11:43:25;;;;;;;2.05;1.65;;;;;;;;;;5016820;28;20253;-69
2022/07/07 11:45:53;;;;;;;3.08;1.60;;;;;;;;;;5012648;28;20234;-66
2022/07/07 11:48:22;;;;;;;1.58;1.48;;;;;;;;;;5013745;28;20219;-70
2022/07/07 11:50:49;;;;;;;2.35;1.50;;;;;;;;;;5019562;28;20613;-69
2022/07/07 11:53:17;;;;;;;2.97;1.85;;;;;;;;;;5014645;28;20257;-68
2022/07/07 11:55:44;;;;;;;1.85;1.73;;;;;;;;;;5013094;28;20241;-68
2022/07/07 11:58:12;;;;;;;5.35;1.88;;;;;;;;;;5012412;28;20575;-69
2022/07/07 12:00:41;;;;;;;1.60;1.50;;;;;;;;;;5011704;28;20465;-69
2022/07/07 12:03:09;;;;;;;2.63;1.85;;;;;;;;;;5021476;28;20210;-68
2022/07/07 12:05:43;;;;;;;3.47;2.60;;;;;;;;;;5022736;28;20289;-69
2022/07/07 12:08:12;;;;;;;3.00;1.90;;;;;;;;;;5015985;28;20222;-68
2022/07/07 12:10:44;;;;;;;2.67;1.70;;;;;;;;;;5017437;28;20332;-68
2022/07/07 12:13:13;;;;;;;3.70;1.80;;;;;;;;;;5011765;28;20298;-68
2022/07/07 12:15:40;;;;;;;2.47;1.52;;;;;;;;;;5010473;28;20232;-69
2022/07/07 12:18:08;;;;;;;2.70;2.03;;;;;;;;;;5017502;28;20231;-68
2022/07/07 12:20:36;;;;;;;3.38;1.50;;;;;;;;;;5016531;28;20586;-69
2022/07/07 12:23:08;;;;;;;2.00;1.75;;;;;;;;;;5025520;28;20836;-68
2022/07/07 12:25:37;;;;;;;3.10;1.70;;;;;;;;;;5016600;28;20434;-68
2022/07/07 12:28:09;;;;;;;3.15;1.70;;;;;;;;;;5023359;28;20214;-69
2022/07/07 12:30:49;;;;;;;3.20;1.85;;;;;;;;;;5023679;28;20207;-68
2022/07/07 12:33:26;;;;;;;2.03;1.73;;;;;;;;;;5047516;28;20214;-69
2022/07/07 12:35:58;;;;;;;4.45;2.00;;;;;;;;;;5024973;28;20226;-68
2022/07/07 12:38:44;;;;;;;2.47;1.92;;;;;;;;;;5025997;28;20712;-68
2022/07/07 12:41:25;;;;;;;1.83;1.73;;;;;;;;;;5023142;28;20693;-68
2022/07/07 12:43:53;;;;;;;3.13;1.77;;;;;;;;;;5022157;28;20230;-68
2022/07/07 12:46:20;;;;;;;4.07;1.80;;;;;;;;;;5029599;28;20633;-68
2022/07/07 12:48:50;;;;;;;2.85;1.90;;;;;;;;;;5028224;28;20213;-68
2022/07/07 12:51:24;;;;;;;1.92;1.70;;;;;;;;;;5026587;28;20199;-66
2022/07/07 12:53:52;;;;;;;4.82;2.72;;;;;;;;;;5019518;28;20211;-68
2022/07/07 12:56:19;;;;;;;3.05;1.95;;;;;;;;;;5026303;28;20233;-67
2022/07/07 12:58:50;;;;;;;2.65;1.95;;;;;;;;;;5018786;28;20223;-67
2022/07/07 13:01:19;;;;;;;1.90;1.80;;;;;;;;;;5026843;28;20203;-67
2022/07/07 13:03:49;;;;;;;2.80;1.98;;;;;;;;;;5028662;28;20199;-67
2022/07/07 13:06:16;;;;;;;2.22;1.98;;;;;;;;;;5019867;28;20734;-68
2022/07/07 13:08:44;;;;;;;4.20;1.85;;;;;;;;;;5022556;28;20584;-68
2022/07/07 13:11:12;;;;;;;2.33;1.75;;;;;;;;;;5018416;28;20223;-68
2022/07/07 13:13:39;;;;;;;1.98;1.77;;;;;;;;;;5016102;28;20229;-68
2022/07/07 13:16:27;;;;;;;2.83;2.00;;;;;;;;;;5024331;28;20234;-67
2022/07/07 13:18:54;;;;;;;4.25;1.92;;;;;;;;;;5024764;28;20265;-67
2022/07/07 13:21:22;;;;;;;1.80;1.65;;;;;;;;;;5024720;28;20250;-69
2022/07/07 13:23:49;;;;;;;3.22;1.70;;;;;;;;;;5028117;28;20213;-68
2022/07/07 13:26:16;;;;;;;3.60;2.00;;;;;;;;;;5017940;28;20226;-67
2022/07/07 13:28:46;;;;;;;3.45;1.95;;;;;;;;;;5026270;28;20207;-69
2022/07/07 13:31:16;;;;;;;3.90;1.88;;;;;;;;;;5022744;28;20744;-69
2022/07/07 13:33:44;;;;;;;5.50;4.00;;;;;;;;;;5019365;28;20622;-68
2022/07/07 13:36:11;;;;;;;3.70;2.50;;;;;;;;;;5022245;28;20223;-68
2022/07/07 13:38:39;;;;;;;1.80;1.65;;;;;;;;;;5026278;28;20222;-68
2022/07/07 13:41:06;;;;;;;2.17;1.90;;;;;;;;;;5028605;28;20700;-68
2022/07/07 13:43:37;;;;;;;2.88;2.00;;;;;;;;;;5025450;28;20672;-68
2022/07/07 13:46:04;;;;;;;2.85;1.77;;;;;;;;;;5023395;28;20226;-68
2022/07/07 13:48:32;;;;;;;2.25;2.00;;;;;;;;;;5021053;28;20210;-67
2022/07/07 13:51:00;;;;;;;3.63;2.40;;;;;;;;;;5021793;28;20207;-68
2022/07/07 13:53:27;;;;;;;3.28;2.15;;;;;;;;;;5025656;28;20207;-68
2022/07/07 13:55:54;;;;;;;4.93;2.28;;;;;;;;;;5021556;28;20649;-68
2022/07/07 13:58:22;;;;;;;2.92;1.80;;;;;;;;;;5027402;28;20223;-67
2022/07/07 14:00:49;;;;;;;5.18;1.70;;;;;;;;;;5017234;28;20377;-67
2022/07/07 14:03:18;;;;;;;1.70;1.60;;;;;;;;;;5011323;28;20281;-67
2022/07/07 14:05:45;;;;;;;4.80;1.70;;;;;;;;;;5018488;28;20603;-67
2022/07/07 14:08:13;;;;;;;3.75;1.73;;;;;;;;;;5014267;28;20269;-68
2022/07/07 14:10:41;;;;;;;3.15;1.50;;;;;;;;;;5023383;28;20206;-68
2022/07/07 14:13:08;;;;;;;2.53;1.60;;;;;;;;;;5020104;28;20218;-67
2022/07/07 14:15:35;;;;;;;2.10;1.80;;;;;;;;;;5008491;28;20239;-68
2022/07/07 14:18:03;;;;;;;3.63;1.58;;;;;;;;;;5022749;28;20822;-68
2022/07/07 14:20:30;;;;;;;3.17;1.70;;;;;;;;;;5023106;28;20205;-68
2022/07/07 14:22:58;;;;;;;2.58;1.70;;;;;;;;;;5022336;28;20211;-68
2022/07/07 14:25:25;;;;;;;2.10;1.77;;;;;;;;;;5016018;28;20242;-67
2022/07/07 14:27:53;;;;;;;2.13;1.70;;;;;;;;;;5027168;28;20214;-68
2022/07/07 14:30:20;;;;;;;4.60;1.70;;;;;;;;;;5020928;28;20343;-69
2022/07/07 14:32:48;;;;;;;2.08;1.40;;;;;;;;;;5018236;28;20228;-68
2022/07/07 14:35:16;;;;;;;2.25;1.60;;;;;;;;;;5019361;28;20246;-69
2022/07/07 14:37:43;;;;;;;1.52;1.45;;;;;;;;;;5018362;28;20269;-66
2022/07/07 14:40:10;;;;;;;2.38;2.10;;;;;;;;;;5024853;28;20672;-68
2022/07/07 14:42:38;;;;;;;3.28;2.00;;;;;;;;;;5043619;28;20203;-67
2022/07/07 14:45:06;;;;;;;3.17;2.13;;;;;;;;;;5021279;28;20629;-67
2022/07/07 14:47:33;;;;;;;2.25;1.85;;;;;;;;;;5026659;28;20293;-67
2022/07/07 14:50:00;;;;;;;2.65;2.03;;;;;;;;;;5020553;28;20204;-67
2022/07/07 14:52:29;;;;;;;3.53;1.75;;;;;;;;;;5025901;28;20199;-65
2022/07/07 14:54:57;;;;;;;3.60;1.90;;;;;;;;;;5018174;28;20290;-66
2022/07/07 14:57:24;;;;;;;2.55;2.10;;;;;;;;;;5009799;28;20262;-68